sensor_id;sensor_type;location;lat;lon;timestamp;P1;durP1;ratioP1;P2;durP2;ratioP2
13487;SDS011;6816;48.506;9.050;2023-05-07T00:05:49;4.43;;;2.27;;
13487;SDS011;6816;48.506;9.050;2023-05-07T00:08:50;2.20;;;2.07;;
13487;SDS011;6816;48.506;9.050;2023-05-07T00:11:50;2.87;;;2.60;;
13487;SDS011;6816;48.506;9.050;2023-05-07T00:14:51;3.07;;;2.70;;
13487;SDS011;6816;48.506;9.050;2023-05-07T00:17:52;3.23;;;2.73;;
13487;SDS011;6816;48.506;9.050;2023-05-07T00:20:53;2.97;;;2.53;;
13487;SDS011;6816;48.506;9.050;2023-05-07T00:23:54;2.60;;;2.40;;
13487;SDS011;6816;48.506;9.050;2023-05-07T00:26:54;3.00;;;2.70;;
13487;SDS011;6816;48.506;9.050;2023-05-07T00:29:55;2.93;;;2.63;;
13487;SDS011;6816;48.506;9.050;2023-05-07T00:32:56;4.47;;;2.70;;
13487;SDS011;6816;48.506;9.050;2023-05-07T00:35:57;2.33;;;2.20;;
13487;SDS011;6816;48.506;9.050;2023-05-07T00:38:59;2.60;;;2.40;;
13487;SDS011;6816;48.506;9.050;2023-05-07T00:42:01;2.97;;;2.50;;
13487;SDS011;6816;48.506;9.050;2023-05-07T00:45:03;5.33;;;2.60;;
13487;SDS011;6816;48.506;9.050;2023-05-07T00:48:04;2.87;;;2.60;;
13487;SDS011;6816;48.506;9.050;2023-05-07T00:51:09;2.73;;;2.53;;
13487;SDS011;6816;48.506;9.050;2023-05-07T00:54:11;3.50;;;2.63;;
13487;SDS011;6816;48.506;9.050;2023-05-07T00:57:13;3.23;;;2.93;;
13487;SDS011;6816;48.506;9.050;2023-05-07T01:00:14;4.37;;;2.80;;
13487;SDS011;6816;48.506;9.050;2023-05-07T01:03:15;3.13;;;2.83;;
13487;SDS011;6816;48.506;9.050;2023-05-07T01:06:16;2.90;;;2.70;;
13487;SDS011;6816;48.506;9.050;2023-05-07T01:09:19;2.90;;;2.70;;
13487;SDS011;6816;48.506;9.050;2023-05-07T01:12:20;3.67;;;2.70;;
13487;SDS011;6816;48.506;9.050;2023-05-07T01:15:21;3.43;;;2.93;;
13487;SDS011;6816;48.506;9.050;2023-05-07T01:18:22;2.80;;;2.60;;
13487;SDS011;6816;48.506;9.050;2023-05-07T01:21:24;2.90;;;2.60;;
13487;SDS011;6816;48.506;9.050;2023-05-07T01:24:26;5.10;;;2.80;;
13487;SDS011;6816;48.506;9.050;2023-05-07T01:27:27;3.60;;;2.80;;
13487;SDS011;6816;48.506;9.050;2023-05-07T01:30:28;3.73;;;2.30;;
13487;SDS011;6816;48.506;9.050;2023-05-07T01:33:30;3.03;;;2.77;;
13487;SDS011;6816;48.506;9.050;2023-05-07T01:36:33;3.67;;;2.50;;
13487;SDS011;6816;48.506;9.050;2023-05-07T01:39:35;3.90;;;2.60;;
13487;SDS011;6816;48.506;9.050;2023-05-07T01:42:38;3.03;;;2.73;;
13487;SDS011;6816;48.506;9.050;2023-05-07T01:45:39;2.90;;;2.70;;
13487;SDS011;6816;48.506;9.050;2023-05-07T01:48:40;2.70;;;2.50;;
13487;SDS011;6816;48.506;9.050;2023-05-07T01:51:41;3.57;;;2.73;;
13487;SDS011;6816;48.506;9.050;2023-05-07T01:54:43;3.57;;;2.60;;
13487;SDS011;6816;48.506;9.050;2023-05-07T01:57:44;2.60;;;2.40;;
13487;SDS011;6816;48.506;9.050;2023-05-07T02:00:45;3.27;;;2.97;;
13487;SDS011;6816;48.506;9.050;2023-05-07T02:03:46;3.07;;;2.77;;
13487;SDS011;6816;48.506;9.050;2023-05-07T02:06:47;4.47;;;2.57;;
13487;SDS011;6816;48.506;9.050;2023-05-07T02:09:48;3.33;;;2.50;;
13487;SDS011;6816;48.506;9.050;2023-05-07T02:12:52;2.97;;;2.67;;
13487;SDS011;6816;48.506;9.050;2023-05-07T02:15:52;2.80;;;2.60;;
13487;SDS011;6816;48.506;9.050;2023-05-07T02:18:53;4.03;;;2.87;;
13487;SDS011;6816;48.506;9.050;2023-05-07T02:21:54;3.53;;;2.90;;
13487;SDS011;6816;48.506;9.050;2023-05-07T02:24:55;3.63;;;2.77;;
13487;SDS011;6816;48.506;9.050;2023-05-07T02:27:56;2.87;;;2.67;;
13487;SDS011;6816;48.506;9.050;2023-05-07T02:30:57;3.17;;;2.90;;
13487;SDS011;6816;48.506;9.050;2023-05-07T02:34:00;2.47;;;2.27;;
13487;SDS011;6816;48.506;9.050;2023-05-07T02:37:01;3.77;;;2.60;;
13487;SDS011;6816;48.506;9.050;2023-05-07T02:40:02;2.60;;;2.40;;
13487;SDS011;6816;48.506;9.050;2023-05-07T02:43:04;3.57;;;2.30;;
13487;SDS011;6816;48.506;9.050;2023-05-07T02:46:06;3.30;;;2.43;;
13487;SDS011;6816;48.506;9.050;2023-05-07T02:49:07;2.60;;;2.33;;
13487;SDS011;6816;48.506;9.050;2023-05-07T02:52:08;3.77;;;2.40;;
13487;SDS011;6816;48.506;9.050;2023-05-07T02:55:09;2.87;;;2.67;;
13487;SDS011;6816;48.506;9.050;2023-05-07T02:58:10;2.70;;;2.50;;
13487;SDS011;6816;48.506;9.050;2023-05-07T03:01:11;2.87;;;2.30;;
13487;SDS011;6816;48.506;9.050;2023-05-07T03:04:13;2.80;;;2.60;;
13487;SDS011;6816;48.506;9.050;2023-05-07T03:07:14;3.47;;;2.47;;
13487;SDS011;6816;48.506;9.050;2023-05-07T03:10:15;3.23;;;2.50;;
13487;SDS011;6816;48.506;9.050;2023-05-07T03:13:15;5.53;;;2.60;;
13487;SDS011;6816;48.506;9.050;2023-05-07T03:16:16;2.77;;;2.53;;
13487;SDS011;6816;48.506;9.050;2023-05-07T03:19:17;2.60;;;2.40;;
13487;SDS011;6816;48.506;9.050;2023-05-07T03:22:18;3.03;;;2.60;;
13487;SDS011;6816;48.506;9.050;2023-05-07T03:25:18;3.63;;;2.70;;
13487;SDS011;6816;48.506;9.050;2023-05-07T03:28:19;2.60;;;2.40;;
13487;SDS011;6816;48.506;9.050;2023-05-07T03:31:20;3.80;;;2.80;;
13487;SDS011;6816;48.506;9.050;2023-05-07T03:34:20;2.63;;;2.43;;
13487;SDS011;6816;48.506;9.050;2023-05-07T03:37:22;2.73;;;2.43;;
13487;SDS011;6816;48.506;9.050;2023-05-07T03:40:22;3.10;;;2.80;;
13487;SDS011;6816;48.506;9.050;2023-05-07T03:43:23;4.73;;;2.87;;
13487;SDS011;6816;48.506;9.050;2023-05-07T03:46:23;2.70;;;2.50;;
13487;SDS011;6816;48.506;9.050;2023-05-07T03:49:26;3.93;;;2.87;;
13487;SDS011;6816;48.506;9.050;2023-05-07T03:52:26;3.27;;;2.97;;
13487;SDS011;6816;48.506;9.050;2023-05-07T03:55:27;2.60;;;2.40;;
13487;SDS011;6816;48.506;9.050;2023-05-07T03:58:28;3.80;;;3.00;;
13487;SDS011;6816;48.506;9.050;2023-05-07T04:01:29;3.00;;;2.70;;
13487;SDS011;6816;48.506;9.050;2023-05-07T04:04:39;3.30;;;2.97;;
13487;SDS011;6816;48.506;9.050;2023-05-07T04:08:15;2.80;;;2.50;;
13487;SDS011;6816;48.506;9.050;2023-05-07T04:11:15;3.00;;;2.80;;
13487;SDS011;6816;48.506;9.050;2023-05-07T04:14:18;4.20;;;2.77;;
13487;SDS011;6816;48.506;9.050;2023-05-07T04:17:18;7.17;;;2.93;;
13487;SDS011;6816;48.506;9.050;2023-05-07T04:20:19;4.60;;;2.80;;
13487;SDS011;6816;48.506;9.050;2023-05-07T04:23:20;2.93;;;2.63;;
13487;SDS011;6816;48.506;9.050;2023-05-07T04:26:21;2.80;;;2.60;;
13487;SDS011;6816;48.506;9.050;2023-05-07T04:29:21;4.40;;;2.70;;
13487;SDS011;6816;48.506;9.050;2023-05-07T04:32:22;2.80;;;2.60;;
13487;SDS011;6816;48.506;9.050;2023-05-07T04:35:24;3.03;;;2.70;;
13487;SDS011;6816;48.506;9.050;2023-05-07T04:38:25;4.03;;;3.07;;
13487;SDS011;6816;48.506;9.050;2023-05-07T04:41:26;3.13;;;2.83;;
13487;SDS011;6816;48.506;9.050;2023-05-07T04:44:26;3.80;;;2.90;;
13487;SDS011;6816;48.506;9.050;2023-05-07T04:47:27;3.87;;;2.80;;
13487;SDS011;6816;48.506;9.050;2023-05-07T04:50:28;3.93;;;2.87;;
13487;SDS011;6816;48.506;9.050;2023-05-07T04:53:31;3.73;;;3.07;;
13487;SDS011;6816;48.506;9.050;2023-05-07T04:56:39;2.90;;;2.57;;
13487;SDS011;6816;48.506;9.050;2023-05-07T04:59:42;2.63;;;2.43;;
13487;SDS011;6816;48.506;9.050;2023-05-07T05:02:42;3.70;;;2.80;;
13487;SDS011;6816;48.506;9.050;2023-05-07T05:05:43;2.63;;;2.43;;
13487;SDS011;6816;48.506;9.050;2023-05-07T05:08:44;3.30;;;3.00;;
13487;SDS011;6816;48.506;9.050;2023-05-07T05:11:44;3.47;;;2.87;;
13487;SDS011;6816;48.506;9.050;2023-05-07T05:14:45;3.67;;;3.27;;
13487;SDS011;6816;48.506;9.050;2023-05-07T05:17:46;3.50;;;3.20;;
13487;SDS011;6816;48.506;9.050;2023-05-07T05:20:46;3.53;;;3.07;;
13487;SDS011;6816;48.506;9.050;2023-05-07T05:23:47;3.93;;;3.57;;
13487;SDS011;6816;48.506;9.050;2023-05-07T05:26:48;4.40;;;3.70;;
13487;SDS011;6816;48.506;9.050;2023-05-07T05:29:49;3.80;;;3.43;;
13487;SDS011;6816;48.506;9.050;2023-05-07T05:32:49;3.93;;;3.23;;
13487;SDS011;6816;48.506;9.050;2023-05-07T05:35:50;4.37;;;3.20;;
13487;SDS011;6816;48.506;9.050;2023-05-07T05:38:51;3.43;;;3.13;;
13487;SDS011;6816;48.506;9.050;2023-05-07T05:41:52;3.37;;;3.17;;
13487;SDS011;6816;48.506;9.050;2023-05-07T05:44:52;5.17;;;3.40;;
13487;SDS011;6816;48.506;9.050;2023-05-07T05:47:53;6.33;;;3.03;;
13487;SDS011;6816;48.506;9.050;2023-05-07T05:50:56;3.50;;;3.20;;
13487;SDS011;6816;48.506;9.050;2023-05-07T05:53:57;5.37;;;3.33;;
13487;SDS011;6816;48.506;9.050;2023-05-07T05:56:58;3.33;;;3.03;;
13487;SDS011;6816;48.506;9.050;2023-05-07T05:59:59;3.47;;;3.10;;
13487;SDS011;6816;48.506;9.050;2023-05-07T06:03:00;3.40;;;3.10;;
13487;SDS011;6816;48.506;9.050;2023-05-07T06:06:01;3.07;;;2.87;;
13487;SDS011;6816;48.506;9.050;2023-05-07T06:09:02;3.83;;;3.30;;
13487;SDS011;6816;48.506;9.050;2023-05-07T06:12:03;3.73;;;2.97;;
13487;SDS011;6816;48.506;9.050;2023-05-07T06:15:03;3.97;;;3.40;;
13487;SDS011;6816;48.506;9.050;2023-05-07T06:18:22;3.57;;;3.00;;
13487;SDS011;6816;48.506;9.050;2023-05-07T06:21:54;4.37;;;3.00;;
13487;SDS011;6816;48.506;9.050;2023-05-07T06:25:01;4.10;;;3.00;;
13487;SDS011;6816;48.506;9.050;2023-05-07T06:28:02;3.22;;;2.97;;
13487;SDS011;6816;48.506;9.050;2023-05-07T06:31:13;3.27;;;2.97;;
13487;SDS011;6816;48.506;9.050;2023-05-07T06:34:20;3.50;;;3.20;;
13487;SDS011;6816;48.506;9.050;2023-05-07T06:37:20;3.40;;;3.03;;
13487;SDS011;6816;48.506;9.050;2023-05-07T06:40:21;3.47;;;3.13;;
13487;SDS011;6816;48.506;9.050;2023-05-07T06:43:22;4.32;;;3.28;;
13487;SDS011;6816;48.506;9.050;2023-05-07T06:46:22;3.50;;;3.20;;
13487;SDS011;6816;48.506;9.050;2023-05-07T06:49:23;3.03;;;2.63;;
13487;SDS011;6816;48.506;9.050;2023-05-07T06:52:24;3.40;;;3.10;;
13487;SDS011;6816;48.506;9.050;2023-05-07T06:55:24;4.38;;;3.05;;
13487;SDS011;6816;48.506;9.050;2023-05-07T06:58:25;2.90;;;2.70;;
13487;SDS011;6816;48.506;9.050;2023-05-07T07:01:26;4.03;;;3.20;;
13487;SDS011;6816;48.506;9.050;2023-05-07T07:04:27;4.55;;;2.85;;
13487;SDS011;6816;48.506;9.050;2023-05-07T07:07:28;4.00;;;2.90;;
13487;SDS011;6816;48.506;9.050;2023-05-07T07:10:35;3.42;;;2.88;;
13487;SDS011;6816;48.506;9.050;2023-05-07T07:13:49;3.45;;;3.10;;
13487;SDS011;6816;48.506;9.050;2023-05-07T07:16:51;3.30;;;3.00;;
13487;SDS011;6816;48.506;9.050;2023-05-07T07:19:53;2.92;;;2.72;;
13487;SDS011;6816;48.506;9.050;2023-05-07T07:22:54;6.07;;;2.90;;
13487;SDS011;6816;48.506;9.050;2023-05-07T07:25:56;4.10;;;2.90;;
13487;SDS011;6816;48.506;9.050;2023-05-07T07:28:57;3.47;;;2.85;;
13487;SDS011;6816;48.506;9.050;2023-05-07T07:31:57;3.45;;;2.90;;
13487;SDS011;6816;48.506;9.050;2023-05-07T07:35:01;3.40;;;2.80;;
13487;SDS011;6816;48.506;9.050;2023-05-07T07:38:03;3.17;;;2.67;;
13487;SDS011;6816;48.506;9.050;2023-05-07T07:41:07;3.00;;;2.80;;
13487;SDS011;6816;48.506;9.050;2023-05-07T07:44:09;2.83;;;2.58;;
13487;SDS011;6816;48.506;9.050;2023-05-07T07:47:12;2.65;;;2.45;;
13487;SDS011;6816;48.506;9.050;2023-05-07T07:50:19;2.60;;;2.40;;
13487;SDS011;6816;48.506;9.050;2023-05-07T07:53:20;2.53;;;2.33;;
13487;SDS011;6816;48.506;9.050;2023-05-07T07:56:21;2.90;;;2.70;;
13487;SDS011;6816;48.506;9.050;2023-05-07T07:59:22;2.70;;;2.47;;
13487;SDS011;6816;48.506;9.050;2023-05-07T08:02:23;2.83;;;2.63;;
13487;SDS011;6816;48.506;9.050;2023-05-07T08:05:33;2.83;;;2.63;;
13487;SDS011;6816;48.506;9.050;2023-05-07T08:08:35;3.47;;;2.70;;
13487;SDS011;6816;48.506;9.050;2023-05-07T08:11:39;2.75;;;2.30;;
13487;SDS011;6816;48.506;9.050;2023-05-07T08:14:40;2.78;;;2.45;;
13487;SDS011;6816;48.506;9.050;2023-05-07T08:17:43;2.60;;;2.40;;
13487;SDS011;6816;48.506;9.050;2023-05-07T08:20:49;2.80;;;2.40;;
13487;SDS011;6816;48.506;9.050;2023-05-07T08:23:50;3.30;;;3.00;;
13487;SDS011;6816;48.506;9.050;2023-05-07T08:26:53;3.10;;;2.80;;
13487;SDS011;6816;48.506;9.050;2023-05-07T08:29:54;2.70;;;2.50;;
13487;SDS011;6816;48.506;9.050;2023-05-07T08:32:55;7.05;;;2.38;;
13487;SDS011;6816;48.506;9.050;2023-05-07T08:35:58;3.17;;;2.88;;
13487;SDS011;6816;48.506;9.050;2023-05-07T08:38:59;2.97;;;2.78;;
13487;SDS011;6816;48.506;9.050;2023-05-07T08:42:04;3.42;;;3.13;;
13487;SDS011;6816;48.506;9.050;2023-05-07T08:45:10;2.78;;;2.58;;
13487;SDS011;6816;48.506;9.050;2023-05-07T08:48:16;3.47;;;3.00;;
13487;SDS011;6816;48.506;9.050;2023-05-07T08:51:18;3.40;;;2.70;;
13487;SDS011;6816;48.506;9.050;2023-05-07T08:54:22;3.10;;;2.80;;
13487;SDS011;6816;48.506;9.050;2023-05-07T08:57:24;2.67;;;2.47;;
13487;SDS011;6816;48.506;9.050;2023-05-07T09:00:27;3.17;;;2.92;;
13487;SDS011;6816;48.506;9.050;2023-05-07T09:03:31;2.90;;;2.70;;
13487;SDS011;6816;48.506;9.050;2023-05-07T09:06:33;2.45;;;2.35;;
13487;SDS011;6816;48.506;9.050;2023-05-07T09:09:34;2.85;;;2.65;;
13487;SDS011;6816;48.506;9.050;2023-05-07T09:12:49;2.72;;;2.53;;
13487;SDS011;6816;48.506;9.050;2023-05-07T09:15:52;3.08;;;2.58;;
13487;SDS011;6816;48.506;9.050;2023-05-07T09:18:54;2.65;;;2.45;;
13487;SDS011;6816;48.506;9.050;2023-05-07T09:22:22;2.75;;;2.53;;
13487;SDS011;6816;48.506;9.050;2023-05-07T09:25:48;3.70;;;2.58;;
13487;SDS011;6816;48.506;9.050;2023-05-07T09:28:50;2.67;;;2.47;;
13487;SDS011;6816;48.506;9.050;2023-05-07T09:31:53;2.28;;;2.17;;
13487;SDS011;6816;48.506;9.050;2023-05-07T09:35:15;2.22;;;2.10;;
13487;SDS011;6816;48.506;9.050;2023-05-07T09:38:46;2.55;;;2.35;;
13487;SDS011;6816;48.506;9.050;2023-05-07T09:45:00;2.72;;;2.38;;
13487;SDS011;6816;48.506;9.050;2023-05-07T09:48:05;2.88;;;2.35;;
13487;SDS011;6816;48.506;9.050;2023-05-07T09:51:18;2.47;;;2.25;;
13487;SDS011;6816;48.506;9.050;2023-05-07T09:54:28;2.50;;;2.30;;
13487;SDS011;6816;48.506;9.050;2023-05-07T09:57:30;2.40;;;2.30;;
13487;SDS011;6816;48.506;9.050;2023-05-07T10:00:32;2.53;;;2.33;;
13487;SDS011;6816;48.506;9.050;2023-05-07T10:03:33;2.22;;;2.05;;
13487;SDS011;6816;48.506;9.050;2023-05-07T10:06:36;2.50;;;2.30;;
13487;SDS011;6816;48.506;9.050;2023-05-07T10:09:40;2.10;;;1.95;;
13487;SDS011;6816;48.506;9.050;2023-05-07T10:12:43;2.60;;;2.22;;
13487;SDS011;6816;48.506;9.050;2023-05-07T10:15:45;2.17;;;1.95;;
13487;SDS011;6816;48.506;9.050;2023-05-07T10:18:46;2.20;;;1.95;;
13487;SDS011;6816;48.506;9.050;2023-05-07T10:21:51;4.10;;;1.50;;
13487;SDS011;6816;48.506;9.050;2023-05-07T10:24:59;2.05;;;1.95;;
13487;SDS011;6816;48.506;9.050;2023-05-07T10:28:05;1.80;;;1.70;;
13487;SDS011;6816;48.506;9.050;2023-05-07T10:34:28;2.50;;;1.95;;
13487;SDS011;6816;48.506;9.050;2023-05-07T10:37:33;3.53;;;1.85;;
13487;SDS011;6816;48.506;9.050;2023-05-07T10:40:34;1.80;;;1.67;;
13487;SDS011;6816;48.506;9.050;2023-05-07T10:43:39;2.13;;;1.92;;
13487;SDS011;6816;48.506;9.050;2023-05-07T10:46:41;2.00;;;1.70;;
13487;SDS011;6816;48.506;9.050;2023-05-07T10:52:43;2.28;;;1.73;;
13487;SDS011;6816;48.506;9.050;2023-05-07T10:55:47;1.70;;;1.60;;
13487;SDS011;6816;48.506;9.050;2023-05-07T10:58:49;2.13;;;1.73;;
13487;SDS011;6816;48.506;9.050;2023-05-07T11:09:15;1.60;;;1.50;;
13487;SDS011;6816;48.506;9.050;2023-05-07T11:11:56;1.73;;;1.63;;
13487;SDS011;6816;48.506;9.050;2023-05-07T11:14:58;1.48;;;1.38;;
13487;SDS011;6816;48.506;9.050;2023-05-07T11:17:59;1.80;;;1.60;;
13487;SDS011;6816;48.506;9.050;2023-05-07T11:21:00;1.80;;;1.70;;
13487;SDS011;6816;48.506;9.050;2023-05-07T11:24:02;1.60;;;1.50;;
13487;SDS011;6816;48.506;9.050;2023-05-07T11:27:05;1.95;;;1.48;;
13487;SDS011;6816;48.506;9.050;2023-05-07T11:30:06;1.60;;;1.50;;
13487;SDS011;6816;48.506;9.050;2023-05-07T11:33:08;2.08;;;1.70;;
13487;SDS011;6816;48.506;9.050;2023-05-07T11:36:09;1.60;;;1.20;;
13487;SDS011;6816;48.506;9.050;2023-05-07T11:39:29;1.50;;;1.40;;
13487;SDS011;6816;48.506;9.050;2023-05-07T11:42:36;1.65;;;1.55;;
13487;SDS011;6816;48.506;9.050;2023-05-07T11:45:38;1.70;;;1.55;;
13487;SDS011;6816;48.506;9.050;2023-05-07T11:48:38;1.73;;;1.63;;
13487;SDS011;6816;48.506;9.050;2023-05-07T11:51:39;1.52;;;1.38;;
13487;SDS011;6816;48.506;9.050;2023-05-07T11:54:44;1.80;;;1.70;;
13487;SDS011;6816;48.506;9.050;2023-05-07T11:57:55;1.60;;;1.50;;
13487;SDS011;6816;48.506;9.050;2023-05-07T12:00:56;1.67;;;1.58;;
13487;SDS011;6816;48.506;9.050;2023-05-07T12:03:57;2.35;;;1.30;;
13487;SDS011;6816;48.506;9.050;2023-05-07T12:06:58;1.50;;;1.40;;
13487;SDS011;6816;48.506;9.050;2023-05-07T12:09:58;3.25;;;1.77;;
13487;SDS011;6816;48.506;9.050;2023-05-07T12:12:59;2.70;;;1.60;;
13487;SDS011;6816;48.506;9.050;2023-05-07T12:16:00;2.22;;;1.70;;
13487;SDS011;6816;48.506;9.050;2023-05-07T12:19:03;1.35;;;1.25;;
13487;SDS011;6816;48.506;9.050;2023-05-07T12:22:04;1.92;;;1.65;;
13487;SDS011;6816;48.506;9.050;2023-05-07T12:25:05;7.07;;;1.83;;
13487;SDS011;6816;48.506;9.050;2023-05-07T12:28:07;1.98;;;1.80;;
13487;SDS011;6816;48.506;9.050;2023-05-07T12:31:08;1.75;;;1.65;;
13487;SDS011;6816;48.506;9.050;2023-05-07T12:34:10;1.88;;;1.75;;
13487;SDS011;6816;48.506;9.050;2023-05-07T12:37:12;3.92;;;2.00;;
13487;SDS011;6816;48.506;9.050;2023-05-07T12:40:13;3.63;;;1.73;;
13487;SDS011;6816;48.506;9.050;2023-05-07T12:43:20;2.38;;;1.65;;
13487;SDS011;6816;48.506;9.050;2023-05-07T12:46:25;2.53;;;2.03;;
13487;SDS011;6816;48.506;9.050;2023-05-07T12:49:25;3.08;;;1.70;;
13487;SDS011;6816;48.506;9.050;2023-05-07T12:52:26;2.65;;;1.85;;
13487;SDS011;6816;48.506;9.050;2023-05-07T12:55:27;1.70;;;1.60;;
13487;SDS011;6816;48.506;9.050;2023-05-07T12:58:30;1.70;;;1.55;;
13487;SDS011;6816;48.506;9.050;2023-05-07T13:01:33;4.47;;;1.88;;
13487;SDS011;6816;48.506;9.050;2023-05-07T13:04:34;1.90;;;1.80;;
13487;SDS011;6816;48.506;9.050;2023-05-07T13:07:35;3.03;;;2.08;;
13487;SDS011;6816;48.506;9.050;2023-05-07T13:10:37;7.90;;;2.72;;
13487;SDS011;6816;48.506;9.050;2023-05-07T13:13:38;4.25;;;2.42;;
13487;SDS011;6816;48.506;9.050;2023-05-07T13:16:40;2.58;;;2.28;;
13487;SDS011;6816;48.506;9.050;2023-05-07T13:19:40;4.22;;;2.30;;
13487;SDS011;6816;48.506;9.050;2023-05-07T13:22:41;2.00;;;1.90;;
13487;SDS011;6816;48.506;9.050;2023-05-07T13:25:42;2.63;;;2.40;;
13487;SDS011;6816;48.506;9.050;2023-05-07T13:28:42;3.33;;;2.47;;
13487;SDS011;6816;48.506;9.050;2023-05-07T13:31:43;2.50;;;2.30;;
13487;SDS011;6816;48.506;9.050;2023-05-07T13:34:44;2.42;;;2.22;;
13487;SDS011;6816;48.506;9.050;2023-05-07T13:37:48;2.90;;;2.60;;
13487;SDS011;6816;48.506;9.050;2023-05-07T13:40:49;3.17;;;2.63;;
13487;SDS011;6816;48.506;9.050;2023-05-07T13:43:49;4.15;;;2.70;;
13487;SDS011;6816;48.506;9.050;2023-05-07T13:46:50;4.95;;;2.35;;
13487;SDS011;6816;48.506;9.050;2023-05-07T13:49:51;7.53;;;3.00;;
13487;SDS011;6816;48.506;9.050;2023-05-07T13:52:51;3.20;;;1.97;;
13487;SDS011;6816;48.506;9.050;2023-05-07T13:55:52;4.90;;;2.63;;
13487;SDS011;6816;48.506;9.050;2023-05-07T13:58:53;3.70;;;2.30;;
13487;SDS011;6816;48.506;9.050;2023-05-07T14:01:53;2.87;;;2.40;;
13487;SDS011;6816;48.506;9.050;2023-05-07T14:04:54;9.83;;;3.03;;
13487;SDS011;6816;48.506;9.050;2023-05-07T14:07:56;4.03;;;2.97;;
13487;SDS011;6816;48.506;9.050;2023-05-07T14:10:57;4.57;;;3.00;;
13487;SDS011;6816;48.506;9.050;2023-05-07T14:13:58;6.17;;;3.10;;
13487;SDS011;6816;48.506;9.050;2023-05-07T14:16:59;3.93;;;2.93;;
13487;SDS011;6816;48.506;9.050;2023-05-07T14:20:08;3.87;;;3.10;;
13487;SDS011;6816;48.506;9.050;2023-05-07T14:23:08;4.67;;;3.73;;
13487;SDS011;6816;48.506;9.050;2023-05-07T14:26:09;3.20;;;2.90;;
13487;SDS011;6816;48.506;9.050;2023-05-07T14:29:10;4.27;;;3.10;;
13487;SDS011;6816;48.506;9.050;2023-05-07T14:32:11;3.50;;;2.87;;
13487;SDS011;6816;48.506;9.050;2023-05-07T14:35:12;4.07;;;3.20;;
13487;SDS011;6816;48.506;9.050;2023-05-07T14:38:12;5.07;;;4.67;;
13487;SDS011;6816;48.506;9.050;2023-05-07T14:41:13;4.30;;;3.90;;
13487;SDS011;6816;48.506;9.050;2023-05-07T14:44:14;3.47;;;3.13;;
13487;SDS011;6816;48.506;9.050;2023-05-07T14:47:20;3.70;;;3.40;;
13487;SDS011;6816;48.506;9.050;2023-05-07T14:53:29;3.33;;;2.90;;
13487;SDS011;6816;48.506;9.050;2023-05-07T14:56:30;2.93;;;2.63;;
13487;SDS011;6816;48.506;9.050;2023-05-07T14:59:31;4.30;;;3.30;;
13487;SDS011;6816;48.506;9.050;2023-05-07T15:02:32;5.78;;;2.85;;
13487;SDS011;6816;48.506;9.050;2023-05-07T15:05:33;3.43;;;3.13;;
13487;SDS011;6816;48.506;9.050;2023-05-07T15:08:34;3.57;;;3.00;;
13487;SDS011;6816;48.506;9.050;2023-05-07T15:11:34;3.13;;;2.92;;
13487;SDS011;6816;48.506;9.050;2023-05-07T15:14:35;3.08;;;2.88;;
13487;SDS011;6816;48.506;9.050;2023-05-07T15:17:35;3.13;;;2.92;;
13487;SDS011;6816;48.506;9.050;2023-05-07T15:20:36;3.55;;;3.25;;
13487;SDS011;6816;48.506;9.050;2023-05-07T15:23:37;4.70;;;4.00;;
13487;SDS011;6816;48.506;9.050;2023-05-07T15:26:38;3.50;;;3.20;;
13487;SDS011;6816;48.506;9.050;2023-05-07T15:29:38;3.40;;;3.10;;
13487;SDS011;6816;48.506;9.050;2023-05-07T15:32:39;3.15;;;2.85;;
13487;SDS011;6816;48.506;9.050;2023-05-07T15:35:43;3.85;;;2.65;;
13487;SDS011;6816;48.506;9.050;2023-05-07T15:38:44;4.18;;;3.00;;
13487;SDS011;6816;48.506;9.050;2023-05-07T15:41:44;3.65;;;2.90;;
13487;SDS011;6816;48.506;9.050;2023-05-07T15:44:45;3.30;;;3.00;;
13487;SDS011;6816;48.506;9.050;2023-05-07T15:47:46;3.40;;;3.00;;
13487;SDS011;6816;48.506;9.050;2023-05-07T15:50:47;3.75;;;2.45;;
13487;SDS011;6816;48.506;9.050;2023-05-07T15:53:48;3.20;;;2.90;;
13487;SDS011;6816;48.506;9.050;2023-05-07T15:56:49;3.90;;;2.38;;
13487;SDS011;6816;48.506;9.050;2023-05-07T15:59:49;2.70;;;2.33;;
13487;SDS011;6816;48.506;9.050;2023-05-07T16:02:50;2.42;;;2.22;;
13487;SDS011;6816;48.506;9.050;2023-05-07T16:05:51;3.35;;;2.95;;
13487;SDS011;6816;48.506;9.050;2023-05-07T16:08:52;2.70;;;2.50;;
13487;SDS011;6816;48.506;9.050;2023-05-07T16:11:52;3.75;;;2.30;;
13487;SDS011;6816;48.506;9.050;2023-05-07T16:14:53;2.80;;;2.40;;
13487;SDS011;6816;48.506;9.050;2023-05-07T16:17:53;2.55;;;2.35;;
13487;SDS011;6816;48.506;9.050;2023-05-07T16:20:56;2.70;;;2.47;;
13487;SDS011;6816;48.506;9.050;2023-05-07T16:23:59;2.92;;;2.70;;
13487;SDS011;6816;48.506;9.050;2023-05-07T16:27:00;2.80;;;2.60;;
13487;SDS011;6816;48.506;9.050;2023-05-07T16:30:00;2.60;;;2.00;;
13487;SDS011;6816;48.506;9.050;2023-05-07T16:33:02;3.00;;;2.28;;
13487;SDS011;6816;48.506;9.050;2023-05-07T16:36:02;2.08;;;1.98;;
13487;SDS011;6816;48.506;9.050;2023-05-07T16:39:03;2.80;;;2.25;;
13487;SDS011;6816;48.506;9.050;2023-05-07T16:42:04;2.65;;;2.40;;
13487;SDS011;6816;48.506;9.050;2023-05-07T16:45:05;2.58;;;2.38;;
13487;SDS011;6816;48.506;9.050;2023-05-07T16:48:06;2.55;;;2.25;;
13487;SDS011;6816;48.506;9.050;2023-05-07T16:51:07;2.20;;;2.08;;
13487;SDS011;6816;48.506;9.050;2023-05-07T16:54:08;2.33;;;2.10;;
13487;SDS011;6816;48.506;9.050;2023-05-07T16:57:09;2.63;;;2.40;;
13487;SDS011;6816;48.506;9.050;2023-05-07T17:00:10;2.78;;;2.47;;
13487;SDS011;6816;48.506;9.050;2023-05-07T17:03:11;2.40;;;2.20;;
13487;SDS011;6816;48.506;9.050;2023-05-07T17:06:12;3.95;;;2.65;;
13487;SDS011;6816;48.506;9.050;2023-05-07T17:09:14;2.70;;;2.28;;
13487;SDS011;6816;48.506;9.050;2023-05-07T17:12:14;2.65;;;2.47;;
13487;SDS011;6816;48.506;9.050;2023-05-07T17:15:15;3.25;;;2.95;;
13487;SDS011;6816;48.506;9.050;2023-05-07T17:18:16;2.47;;;2.28;;
13487;SDS011;6816;48.506;9.050;2023-05-07T17:21:16;3.40;;;2.88;;
13487;SDS011;6816;48.506;9.050;2023-05-07T17:24:17;3.85;;;2.83;;
13487;SDS011;6816;48.506;9.050;2023-05-07T17:27:17;2.75;;;2.55;;
13487;SDS011;6816;48.506;9.050;2023-05-07T17:30:19;3.95;;;2.63;;
13487;SDS011;6816;48.506;9.050;2023-05-07T17:33:20;2.70;;;2.50;;
13487;SDS011;6816;48.506;9.050;2023-05-07T17:36:20;2.50;;;2.30;;
13487;SDS011;6816;48.506;9.050;2023-05-07T17:39:21;2.60;;;2.45;;
13487;SDS011;6816;48.506;9.050;2023-05-07T17:42:22;5.30;;;4.60;;
13487;SDS011;6816;48.506;9.050;2023-05-07T17:45:23;2.75;;;2.55;;
13487;SDS011;6816;48.506;9.050;2023-05-07T17:48:23;3.35;;;3.05;;
13487;SDS011;6816;48.506;9.050;2023-05-07T17:51:24;2.60;;;2.22;;
13487;SDS011;6816;48.506;9.050;2023-05-07T17:54:25;3.13;;;2.63;;
13487;SDS011;6816;48.506;9.050;2023-05-07T17:57:25;3.15;;;2.90;;
13487;SDS011;6816;48.506;9.050;2023-05-07T18:00:26;3.15;;;2.70;;
13487;SDS011;6816;48.506;9.050;2023-05-07T18:03:27;3.63;;;3.07;;
13487;SDS011;6816;48.506;9.050;2023-05-07T18:06:29;3.03;;;2.83;;
13487;SDS011;6816;48.506;9.050;2023-05-07T18:09:30;3.60;;;3.30;;
13487;SDS011;6816;48.506;9.050;2023-05-07T18:12:31;3.88;;;3.08;;
13487;SDS011;6816;48.506;9.050;2023-05-07T18:15:32;6.17;;;5.33;;
13487;SDS011;6816;48.506;9.050;2023-05-07T18:18:33;5.87;;;4.97;;
13487;SDS011;6816;48.506;9.050;2023-05-07T18:21:34;6.60;;;4.07;;
13487;SDS011;6816;48.506;9.050;2023-05-07T18:24:35;4.70;;;3.23;;
13487;SDS011;6816;48.506;9.050;2023-05-07T18:27:35;2.90;;;2.70;;
13487;SDS011;6816;48.506;9.050;2023-05-07T18:30:36;3.50;;;2.70;;
13487;SDS011;6816;48.506;9.050;2023-05-07T18:33:38;3.30;;;3.00;;
13487;SDS011;6816;48.506;9.050;2023-05-07T18:36:39;3.60;;;3.13;;
13487;SDS011;6816;48.506;9.050;2023-05-07T18:39:39;3.40;;;2.67;;
13487;SDS011;6816;48.506;9.050;2023-05-07T18:42:42;3.03;;;2.70;;
13487;SDS011;6816;48.506;9.050;2023-05-07T18:45:44;3.47;;;2.90;;
13487;SDS011;6816;48.506;9.050;2023-05-07T18:48:47;3.40;;;2.70;;
13487;SDS011;6816;48.506;9.050;2023-05-07T18:51:48;4.63;;;2.67;;
13487;SDS011;6816;48.506;9.050;2023-05-07T18:54:48;2.70;;;2.50;;
13487;SDS011;6816;48.506;9.050;2023-05-07T18:57:50;4.20;;;2.70;;